Time;durP1;ratioP1;P1;durP2;ratioP2;P2;SDS_P1;SDS_P2;PMS_P1;PMS_P2;Temp;Humidity;BMP_temperature;BMP_pressure;BME280_temperature;BME280_humidity;BME280_pressure;Samples;Min_cycle;Max_cycle;Signal;HPM_P1;HPM_P2
2022/04/23 00:00:06;;;;;;;9.75;3.80;;;;;;;10.01;72.40;100628.84;10253512;29;20047;-81
2022/04/23 00:05:10;;;;;;;5.03;2.88;;;;;;;9.34;72.62;100548.19;10252290;29;20047;-81
2022/04/23 00:10:10;;;;;;;4.97;3.40;;;;;;;9.00;72.54;100526.88;10251590;29;20043;-81
2022/04/23 00:15:11;;;;;;;6.25;3.88;;;;;;;9.28;72.94;100597.34;10252273;29;20039;-82
2022/04/23 00:20:12;;;;;;;7.10;3.95;;;;;;;9.32;73.01;100625.22;10251321;28;20138;-82
2022/04/23 00:25:13;;;;;;;5.75;3.80;;;;;;;8.90;72.92;100603.81;10252113;28;20146;-81
2022/04/23 00:30:14;;;;;;;6.85;4.03;;;;;;;8.72;73.25;100597.66;10251163;29;20043;-82
2022/04/23 00:35:16;;;;;;;21.42;5.88;;;;;;;8.97;73.87;100662.31;10251825;29;20039;-81
2022/04/23 00:40:17;;;;;;;21.20;5.30;;;;;;;7.93;73.31;100520.47;10251678;29;20406;-81
2022/04/23 00:45:20;;;;;;;12.73;4.63;;;;;;;8.37;74.22;100636.28;10251501;29;20047;-81
2022/04/23 00:50:21;;;;;;;10.02;4.57;;;;;;;8.11;74.20;100615.78;10251491;29;20043;-81
2022/04/23 00:55:23;;;;;;;12.20;4.45;;;;;;;8.31;73.99;100672.09;10250735;29;20046;-82
2022/04/23 01:00:25;;;;;;;9.18;4.03;;;;;;;8.18;74.68;100674.25;10250894;29;20050;-82
2022/04/23 01:05:26;;;;;;;11.52;4.50;;;;;;;7.30;74.92;100526.41;10251627;29;20046;-82
2022/04/23 01:10:27;;;;;;;5.80;3.22;;;;;;;8.11;75.04;100675.81;10250931;29;20058;-81
2022/04/23 01:15:28;;;;;;;6.60;4.10;;;;;;;7.99;75.40;100677.78;10237880;29;20047;-81
2022/04/23 01:20:29;;;;;;;10.57;4.28;;;;;;;7.77;74.97;100679.75;10220603;28;20463;-81
2022/04/23 01:25:31;;;;;;;7.85;4.13;;;;;;;7.46;75.54;100691.50;10250437;29;20137;-80
2022/04/23 01:30:32;;;;;;;8.30;4.35;;;;;;;7.31;75.78;100676.03;10233741;29;20070;-81
2022/04/23 01:35:33;;;;;;;10.55;5.38;;;;;;;7.06;76.11;100666.03;10244917;28;20049;-81
2022/04/23 01:40:34;;;;;;;14.63;5.18;;;;;;;7.39;75.95;100706.22;10217574;29;20040;-81
2022/04/23 01:45:37;;;;;;;15.95;4.85;;;;;;;6.74;76.00;100619.53;10217245;29;20518;-81
2022/04/23 01:50:37;;;;;;;10.10;4.38;;;;;;;6.42;75.99;100609.19;10218027;29;20044;-81
2022/04/23 01:55:38;;;;;;;9.88;4.68;;;;;;;6.95;75.43;100719.81;10217025;29;20504;-81
2022/04/23 02:00:39;;;;;;;7.43;4.35;;;;;;;6.83;76.09;100705.88;10216688;29;20043;-81
2022/04/23 02:05:40;;;;;;;12.95;4.13;;;;;;;6.48;76.16;100657.97;10217854;29;20076;-81
2022/04/23 02:10:41;;;;;;;14.05;4.03;;;;;;;6.54;75.93;100697.00;10217574;29;20099;-81
2022/04/23 02:15:41;;;;;;;8.85;3.97;;;;;;;6.01;77.01;100608.34;10216224;29;20044;-82
2022/04/23 02:20:42;;;;;;;7.70;4.13;;;;;;;5.91;76.74;100608.25;10215851;29;20060;-81
2022/04/23 02:25:43;;;;;;;15.25;5.00;;;;;;;6.44;76.67;100712.81;10216238;29;20051;-81
2022/04/23 02:30:44;;;;;;;14.88;7.40;;;;;;;6.30;77.08;100692.88;10215750;29;20423;-79
2022/04/23 02:35:45;;;;;;;8.55;4.72;;;;;;;6.38;76.97;100693.06;10216003;29;20048;-81
2022/04/23 02:40:46;;;;;;;12.15;4.90;;;;;;;6.09;76.38;100636.69;10215409;29;20043;-81
2022/04/23 02:45:48;;;;;;;20.73;6.00;;;;;;;6.79;77.43;100722.09;10214338;29;20044;-81
2022/04/23 02:50:48;;;;;;;29.95;8.27;;;;;;;7.20;76.22;100699.94;10215016;29;20449;-82
2022/04/23 02:55:51;;;;;;;11.65;5.60;;;;;;;7.95;75.33;100727.47;10214960;29;20043;-82
2022/04/23 03:00:55;;;;;;;13.63;7.30;;;;;;;8.44;74.79;100699.13;10214688;29;20068;-81
2022/04/23 03:05:56;;;;;;;9.60;5.50;;;;;;;9.21;73.23;100734.13;10215510;29;20059;-81
2022/04/23 03:10:56;;;;;;;17.83;5.57;;;;;;;9.74;72.17;100703.28;10215312;29;20500;-83
2022/04/23 03:15:57;;;;;;;17.30;5.32;;;;;;;10.75;69.53;100719.53;10214415;29;20134;-82
2022/04/23 03:20:58;;;;;;;9.93;6.43;;;;;;;10.61;68.80;100627.16;10225378;29;20071;-83
2022/04/23 03:25:59;;;;;;;16.25;9.85;;;;;;;12.32;66.41;100747.03;10240037;29;20048;-81
2022/04/23 03:31:00;;;;;;;18.73;7.85;;;;;;;13.36;64.15;100742.47;10235286;29;20047;-81
2022/04/23 03:36:01;;;;;;;12.40;6.95;;;;;;;14.29;62.60;100741.38;10228085;29;20073;-80
2022/04/23 03:41:02;;;;;;;12.15;5.63;;;;;;;14.32;59.77;100618.06;10229053;29;20047;-82
2022/04/23 03:46:03;;;;;;;11.30;5.57;;;;;;;15.64;57.95;100740.16;10213918;29;20035;-81
2022/04/23 03:51:05;;;;;;;7.03;4.88;;;;;;;16.11;56.74;100695.88;10224333;29;20044;-81
2022/04/23 03:56:06;;;;;;;12.48;5.10;;;;;;;16.78;56.03;100726.59;10223741;29;20044;-82
2022/04/23 04:01:07;;;;;;;8.77;4.72;;;;;;;17.30;54.26;100725.16;10223638;29;20477;-76
2022/04/23 04:06:07;;;;;;;7.65;4.57;;;;;;;17.65;53.08;100701.66;10246587;29;20444;-82
2022/04/23 04:11:08;;;;;;;10.57;4.05;;;;;;;18.23;51.96;100719.88;10251977;29;20051;-81
2022/04/23 04:16:09;;;;;;;7.00;3.60;;;;;;;18.38;50.93;100711.56;10253573;29;20047;-82
2022/04/23 04:21:10;;;;;;;4.40;3.25;;;;;;;18.50;49.76;100717.94;10255021;29;20067;-82
2022/04/23 04:26:11;;;;;;;17.67;3.97;;;;;;;18.52;49.34;100734.72;10251813;29;20146;-81
2022/04/23 04:36:31;;;;;;;6.32;3.20;;;;;;;18.61;47.27;100732.63;10251358;29;20046;-82
2022/04/23 04:41:32;;;;;;;6.28;3.13;;;;;;;18.39;46.70;100723.97;10251786;29;20070;-82
2022/04/23 04:46:37;;;;;;;13.30;3.22;;;;;;;17.99;46.30;100652.28;10251978;29;20043;-82
2022/04/23 04:51:38;;;;;;;4.00;2.63;;;;;;;18.48;45.69;100715.44;10251265;29;20413;-82
2022/04/23 04:56:39;;;;;;;7.80;2.92;;;;;;;17.96;45.96;100700.25;10234255;29;20051;-82
2022/04/23 05:01:40;;;;;;;5.70;3.40;;;;;;;17.49;45.92;100715.47;10251441;29;20050;-84
2022/04/23 05:06:41;;;;;;;5.50;2.55;;;;;;;17.04;45.85;100699.88;10251204;28;20126;-83
2022/04/23 05:11:42;;;;;;;4.38;2.90;;;;;;;16.56;45.99;100707.09;10259107;29;20047;-81
2022/04/23 05:16:44;;;;;;;7.57;3.40;;;;;;;16.18;47.26;100694.06;10259493;29;20043;-84
2022/04/23 05:21:45;;;;;;;7.07;3.10;;;;;;;16.05;47.19;100693.97;10258745;29;20060;-82
2022/04/23 05:26:46;;;;;;;3.42;3.00;;;;;;;16.33;47.00;100708.22;10258159;29;20113;-86
2022/04/23 05:31:46;;;;;;;5.78;3.22;;;;;;;15.69;46.84;100587.81;10258903;29;20043;-81
2022/04/23 05:36:47;;;;;;;7.53;2.92;;;;;;;16.44;46.60;100667.41;10257782;29;20125;-82
2022/04/23 05:41:48;;;;;;;5.47;2.88;;;;;;;16.54;46.46;100666.22;10259341;29;20043;-84
2022/04/23 05:46:49;;;;;;;9.30;3.33;;;;;;;16.10;46.55;100597.75;10258358;29;20058;-84
2022/04/23 05:51:50;;;;;;;4.00;2.90;;;;;;;16.73;46.28;100696.84;10257492;29;20395;-87
2022/04/23 05:56:51;;;;;;;4.25;3.20;;;;;;;16.50;46.17;100697.16;10258860;29;20031;-84
2022/04/23 06:01:52;;;;;;;3.50;2.45;;;;;;;17.11;45.76;100708.81;10241381;29;20051;-83
2022/04/23 06:06:53;;;;;;;4.20;2.72;;;;;;;16.70;45.42;100595.31;10257676;29;20035;-86
2022/04/23 06:11:53;;;;;;;4.00;2.45;;;;;;;17.40;44.73;100671.88;10257542;29;20414;-85
2022/04/23 06:16:54;;;;;;;3.90;3.10;;;;;;;17.72;44.61;100713.25;10257452;29;20094;-84
2022/04/23 06:21:57;;;;;;;4.90;2.88;;;;;;;17.02;44.54;100575.81;10254108;28;20059;-74
2022/04/23 06:26:59;;;;;;;4.47;3.47;;;;;;;17.49;45.09;100708.25;10255334;29;20582;-73
2022/04/23 06:32:00;;;;;;;4.97;3.00;;;;;;;17.08;44.87;100633.19;10238309;29;20043;-75
2022/04/23 06:37:01;;;;;;;4.45;3.10;;;;;;;16.24;44.71;100454.72;10238495;29;20102;-76
2022/04/23 06:42:03;;;;;;;8.73;3.85;;;;;;;16.97;44.39;100564.03;10254812;29;20054;-75
2022/04/23 06:47:04;;;;;;;5.20;3.25;;;;;;;15.60;43.92;100380.09;10254569;29;20039;-73
2022/04/23 06:52:05;;;;;;;5.55;3.40;;;;;;;17.39;44.37;100694.41;10237822;29;20043;-73
2022/04/23 06:57:06;;;;;;;5.30;3.58;;;;;;;17.48;43.84;100604.53;10231367;29;20054;-73
2022/04/23 07:02:07;;;;;;;10.00;3.17;;;;;;;16.28;42.81;100351.44;10215081;29;20048;-75
2022/04/23 07:07:08;;;;;;;3.72;2.90;;;;;;;16.88;42.48;100432.75;10197148;29;20603;-73
2022/04/23 07:12:10;;;;;;;6.00;3.15;;;;;;;17.79;42.32;100616.53;10213140;29;20039;-74
2022/04/23 07:17:10;;;;;;;5.03;3.10;;;;;;;16.21;41.76;100393.47;10248341;29;20130;-74
2022/04/23 07:22:11;;;;;;;7.25;2.58;;;;;;;17.52;41.87;100578.91;10236083;29;20126;-73
2022/04/23 07:27:12;;;;;;;9.15;2.95;;;;;;;17.69;41.29;100579.31;10254045;29;20054;-77
2022/04/23 07:32:15;;;;;;;5.38;2.90;;;;;;;17.30;40.87;100468.22;10235608;29;20050;-72
2022/04/23 07:37:28;;;;;;;4.20;2.88;;;;;;;18.47;41.09;100657.31;10251566;29;20733;-72
2022/04/23 07:42:29;;;;;;;4.45;2.72;;;;;;;18.48;40.84;100558.59;10199613;29;20154;-74
2022/04/23 07:47:30;;;;;;;3.95;2.35;;;;;;;18.98;41.06;100598.31;10236540;29;20151;-72
2022/04/23 07:52:31;;;;;;;6.53;2.40;;;;;;;19.16;40.62;100630.72;10252124;29;20125;-73
2022/04/23 07:57:32;;;;;;;5.38;2.70;;;;;;;18.91;40.52;100611.84;10253288;29;20051;-72
2022/04/23 08:02:32;;;;;;;4.28;2.60;;;;;;;18.24;40.79;100485.69;10251193;29;20483;-74
2022/04/23 08:07:33;;;;;;;4.60;2.85;;;;;;;19.31;40.07;100580.03;10251831;29;20086;-74
2022/04/23 08:12:35;;;;;;;3.35;2.78;;;;;;;18.99;39.82;100565.78;10250895;29;20051;-72
2022/04/23 08:17:36;;;;;;;3.90;2.60;;;;;;;19.32;39.75;100623.97;10249332;29;20051;-74
2022/04/23 08:22:37;;;;;;;4.05;2.60;;;;;;;17.91;39.67;100417.84;10222652;29;20807;-73
2022/04/23 08:27:52;;;;;;;3.90;2.40;;;;;;;19.29;39.31;100533.66;10249587;29;20046;-74
2022/04/23 08:32:52;;;;;;;3.92;2.38;;;;;;;19.55;39.16;100546.06;10230999;29;20074;-74
2022/04/23 08:37:53;;;;;;;5.05;2.63;;;;;;;19.52;38.94;100535.72;10250272;29;20051;-73
2022/04/23 08:42:54;;;;;;;3.90;2.67;;;;;;;19.53;38.59;100547.31;10254372;28;20166;-73
2022/04/23 08:47:59;;;;;;;6.03;2.70;;;;;;;19.73;38.62;100556.06;10259745;29;20138;-74
2022/04/23 08:53:01;;;;;;;3.90;2.35;;;;;;;20.20;38.00;100585.22;10241854;29;20051;-73
2022/04/23 08:58:02;;;;;;;5.25;2.20;;;;;;;19.98;38.03;100541.69;10259984;29;20051;-76
2022/04/23 09:03:03;;;;;;;6.40;2.85;;;;;;;20.40;37.61;100553.44;10258671;29;20050;-74
2022/04/23 09:08:07;;;;;;;3.85;2.33;;;;;;;19.57;37.88;100481.19;10258168;29;20105;-72
2022/04/23 09:13:08;;;;;;;5.75;3.45;;;;;;;20.19;37.76;100560.13;10259494;29;20492;-73
2022/04/23 09:23:41;;;;;;;7.28;2.60;;;;;;;20.38;37.05;100555.53;10246420;28;20443;-73
2022/04/23 09:28:46;;;;;;;3.53;2.08;;;;;;;20.73;36.76;100547.63;10241412;29;20102;-72
2022/04/23 09:33:49;;;;;;;6.03;2.33;;;;;;;20.55;36.26;100506.34;10219314;29;20514;-73
2022/04/23 09:39:01;;;;;;;11.77;3.10;;;;;;;20.19;35.84;100425.28;10201086;29;20205;-75
2022/04/23 09:44:07;;;;;;;4.18;2.05;;;;;;;20.75;35.86;100536.56;10218592;29;20042;-74
2022/04/23 09:49:09;;;;;;;4.05;2.70;;;;;;;20.73;36.02;100515.22;10218282;29;20051;-72
2022/04/23 09:54:10;;;;;;;5.85;2.60;;;;;;;19.72;36.34;100432.31;10217238;29;20083;-72
2022/04/23 09:59:12;;;;;;;4.40;2.38;;;;;;;20.51;36.68;100549.94;10217059;29;20131;-73
2022/04/23 10:04:15;;;;;;;4.82;2.10;;;;;;;20.46;36.43;100536.34;10217927;29;20151;-74
2022/04/23 10:09:19;;;;;;;7.13;2.03;;;;;;;20.56;36.79;100454.03;10216884;29;20491;-73
2022/04/23 10:14:22;;;;;;;8.88;2.15;;;;;;;21.45;35.89;100543.16;10216930;29;20286;-73
2022/04/23 10:19:24;;;;;;;10.30;3.17;;;;;;;21.05;35.04;100489.78;10216292;29;20044;-73
2022/04/23 10:24:40;;;;;;;3.92;2.20;;;;;;;21.18;34.35;100533.63;10216796;29;20295;-74
2022/04/23 10:29:42;;;;;;;3.00;1.77;;;;;;;21.10;35.14;100438.59;10216404;29;20050;-72
2022/04/23 10:34:44;;;;;;;5.65;2.25;;;;;;;21.52;33.93;100428.47;10216216;29;20052;-72
2022/04/23 10:40:05;;;;;;;3.45;1.80;;;;;;;21.58;32.51;100491.56;10215376;29;20040;-73
2022/04/23 10:45:09;;;;;;;4.82;1.98;;;;;;;21.48;33.87;100457.03;10207803;29;20468;-72
2022/04/23 10:50:20;;;;;;;3.78;2.38;;;;;;;21.91;33.63;100492.81;10215455;29;20515;-72
2022/04/23 10:55:21;;;;;;;12.75;2.13;;;;;;;21.26;33.36;100393.81;10215352;29;20043;-74
2022/04/23 11:00:24;;;;;;;7.35;1.98;;;;;;;21.36;33.14;100427.34;10214647;29;20044;-74
2022/04/23 11:16:11;;;;;;;3.25;1.67;;;;;;;21.50;32.58;100440.56;10214134;29;20051;-75
2022/04/23 11:21:17;;;;;;;5.13;1.70;;;;;;;21.75;32.65;100454.63;10214689;29;20067;-76
2022/04/23 11:26:22;;;;;;;5.13;1.88;;;;;;;21.38;32.25;100344.13;10214508;29;20039;-74
2022/04/23 11:31:22;;;;;;;3.63;2.00;;;;;;;21.91;32.27;100455.75;10197181;29;20058;-73
2022/04/23 11:36:36;;;;;;;5.00;1.80;;;;;;;20.43;31.86;100239.13;10213114;29;20126;-74
2022/04/23 11:41:42;;;;;;;4.63;1.88;;;;;;;20.45;32.03;100245.13;10214269;29;20071;-73
2022/04/23 11:46:45;;;;;;;3.78;1.70;;;;;;;21.46;32.44;100421.31;10213649;29;20135;-74
2022/04/23 11:51:47;;;;;;;4.47;1.77;;;;;;;21.42;32.76;100428.25;10213434;29;20047;-74
2022/04/23 11:56:48;;;;;;;4.60;1.88;;;;;;;20.42;32.73;100313.88;10213630;29;20042;-74
2022/04/23 12:01:49;;;;;;;4.55;1.67;;;;;;;20.98;33.02;100425.09;10223569;29;20055;-73
2022/04/23 12:06:50;;;;;;;2.83;1.58;;;;;;;20.73;33.02;100423.44;10215361;29;20047;-74
2022/04/23 12:11:59;;;;;;;6.88;2.20;;;;;;;20.09;33.32;100313.59;10210777;29;20400;-73
2022/04/23 12:17:07;;;;;;;3.70;1.80;;;;;;;20.54;33.44;100349.00;10211975;29;20051;-74
2022/04/23 12:22:07;;;;;;;4.72;2.00;;;;;;;21.05;33.12;100411.47;10212496;29;20067;-74
2022/04/23 12:27:08;;;;;;;3.53;1.73;;;;;;;21.13;32.94;100438.94;10212160;29;20039;-74
2022/04/23 12:43:23;;;;;;;4.60;2.30;;;;;;;21.36;33.36;100443.53;10252074;29;20043;-75
2022/04/23 12:48:24;;;;;;;337.25;159.15;;;;;;;20.60;32.88;100306.75;10210865;29;20086;-74
2022/04/23 12:53:35;;;;;;;49.28;25.17;;;;;;;21.03;32.56;100333.38;10211274;29;20063;-75
2022/04/23 12:58:36;;;;;;;68.93;29.20;;;;;;;21.26;33.26;100388.41;10212267;29;20095;-74
2022/04/23 13:03:43;;;;;;;39.30;16.13;;;;;;;21.69;33.08;100446.63;10211738;29;20693;-75
2022/04/23 13:08:56;;;;;;;51.38;21.40;;;;;;;21.73;32.86;100401.84;10211571;29;20126;-74
2022/04/23 13:14:00;;;;;;;12.90;6.70;;;;;;;21.36;33.08;100383.28;10211560;29;20048;-74
2022/04/23 13:19:03;;;;;;;12.43;5.55;;;;;;;21.51;33.04;100428.69;10211896;29;20285;-75
2022/04/23 13:24:04;;;;;;;9.98;2.90;;;;;;;20.77;33.31;100331.19;10210579;29;20423;-74
2022/04/23 13:29:05;;;;;;;14.40;5.00;;;;;;;21.32;33.51;100422.59;10213439;29;20106;-74
2022/04/23 13:34:06;;;;;;;6.82;2.75;;;;;;;21.15;33.72;100439.53;10217904;29;20063;-74
2022/04/23 13:39:07;;;;;;;13.73;4.95;;;;;;;20.13;33.85;100288.63;10218162;29;20126;-74
2022/04/23 13:44:08;;;;;;;5.28;2.13;;;;;;;20.76;34.06;100430.25;10218208;29;20134;-74
2022/04/23 13:49:08;;;;;;;3.45;1.70;;;;;;;20.59;34.51;100426.56;10218082;29;20126;-74
2022/04/23 13:54:09;;;;;;;5.80;2.63;;;;;;;20.28;34.99;100423.88;10217191;29;20044;-75
2022/04/23 13:59:10;;;;;;;3.25;1.85;;;;;;;20.40;35.03;100413.13;10200540;29;20050;-75
2022/04/23 14:14:49;;;;;;;15.90;4.88;;;;;;;20.31;35.05;100419.88;10236948;29;20051;-75
2022/04/23 14:19:50;;;;;;;6.50;2.00;;;;;;;19.82;35.18;100355.25;10245266;29;20047;-75
2022/04/23 14:24:51;;;;;;;6.35;2.13;;;;;;;20.26;35.02;100425.16;10234131;29;20499;-75
2022/04/23 14:29:51;;;;;;;8.00;2.72;;;;;;;19.21;35.33;100269.22;10253235;29;20051;-77
2022/04/23 14:34:52;;;;;;;5.13;2.42;;;;;;;20.02;35.52;100389.22;10243335;29;20102;-77
2022/04/23 14:39:53;;;;;;;5.38;1.88;;;;;;;19.06;35.25;100261.53;10252351;28;20054;-76
2022/04/23 14:44:54;;;;;;;5.07;2.05;;;;;;;18.95;35.97;100262.28;10253767;29;20479;-76
2022/04/23 14:49:55;;;;;;;4.97;2.15;;;;;;;19.11;35.90;100315.50;10253116;29;20145;-76
2022/04/23 14:54:56;;;;;;;3.10;1.85;;;;;;;19.26;36.11;100337.47;10232741;29;20047;-74
2022/04/23 14:59:57;;;;;;;3.83;2.00;;;;;;;19.08;35.80;100308.69;10246871;29;20050;-76
2022/04/23 15:04:58;;;;;;;9.93;3.63;;;;;;;18.86;35.98;100277.88;10252207;29;20047;-76
2022/04/23 15:09:59;;;;;;;6.72;2.67;;;;;;;19.47;35.73;100408.94;10252696;29;20054;-75
2022/04/23 15:15:00;;;;;;;10.77;2.78;;;;;;;18.48;36.45;100289.63;10238316;29;20055;-78
2022/04/23 15:20:01;;;;;;;15.57;7.80;;;;;;;18.08;37.24;100252.31;10215874;29;495879;-75
2022/04/23 15:25:03;;;;;;;28.10;11.23;;;;;;;18.52;37.87;100374.22;10221326;29;20050;-75
2022/04/23 15:30:05;;;;;;;23.98;7.10;;;;;;;17.77;38.30;100296.16;10231032;29;20048;-75
2022/04/23 15:35:06;;;;;;;27.45;5.28;;;;;;;17.93;39.69;100376.28;10224877;29;20090;-76
2022/04/23 15:40:07;;;;;;;12.45;3.63;;;;;;;17.32;41.15;100329.22;10210189;29;20039;-75
2022/04/23 15:45:08;;;;;;;8.27;3.13;;;;;;;17.41;42.11;100388.03;10230509;29;20047;-75
2022/04/23 15:50:10;;;;;;;11.90;3.13;;;;;;;17.01;42.92;100372.88;10232407;29;20039;-76
2022/04/23 15:55:11;;;;;;;5.80;2.55;;;;;;;16.83;43.60;100384.25;10229712;29;20051;-76
2022/04/23 16:00:12;;;;;;;13.10;4.28;;;;;;;16.63;44.23;100394.97;10218524;29;20051;-75
2022/04/23 16:05:13;;;;;;;9.85;2.92;;;;;;;16.47;44.46;100399.91;10233423;29;20046;-76
2022/04/23 16:10:14;;;;;;;9.32;2.80;;;;;;;15.42;45.45;100289.63;10227157;29;20043;-74
2022/04/23 16:15:15;;;;;;;13.45;4.40;;;;;;;15.40;45.82;100313.88;10227834;29;20043;-74
